sensor_id;sensor_type;location;lat;lon;timestamp;temperature;humidity
1988;DHT22;12775;46.994;15.498;2023-06-26T00:01:03;20.50;91.80
1988;DHT22;12775;46.994;15.498;2023-06-26T00:03:30;20.50;91.80
1988;DHT22;12775;46.994;15.498;2023-06-26T00:05:56;20.50;92.10
1988;DHT22;12775;46.994;15.498;2023-06-26T00:08:23;20.40;91.80
1988;DHT22;12775;46.994;15.498;2023-06-26T00:10:49;20.40;91.80
1988;DHT22;12775;46.994;15.498;2023-06-26T00:13:16;20.40;91.90
1988;DHT22;12775;46.994;15.498;2023-06-26T00:15:43;20.30;91.70
1988;DHT22;12775;46.994;15.498;2023-06-26T00:18:10;20.30;91.90
1988;DHT22;12775;46.994;15.498;2023-06-26T00:20:37;20.20;91.90
1988;DHT22;12775;46.994;15.498;2023-06-26T00:23:03;20.20;91.90
1988;DHT22;12775;46.994;15.498;2023-06-26T00:25:31;20.20;91.70
1988;DHT22;12775;46.994;15.498;2023-06-26T00:27:57;20.20;91.80
1988;DHT22;12775;46.994;15.498;2023-06-26T00:30:24;20.10;91.70
1988;DHT22;12775;46.994;15.498;2023-06-26T00:32:52;20.10;92.00
1988;DHT22;12775;46.994;15.498;2023-06-26T00:35:18;20.10;92.50
1988;DHT22;12775;46.994;15.498;2023-06-26T00:37:45;20.10;92.90
1988;DHT22;12775;46.994;15.498;2023-06-26T00:40:12;20.00;92.80
1988;DHT22;12775;46.994;15.498;2023-06-26T00:42:38;20.00;92.80
1988;DHT22;12775;46.994;15.498;2023-06-26T00:45:05;19.90;92.70
1988;DHT22;12775;46.994;15.498;2023-06-26T00:47:32;19.90;92.60
1988;DHT22;12775;46.994;15.498;2023-06-26T00:49:58;19.90;92.60
1988;DHT22;12775;46.994;15.498;2023-06-26T00:52:25;19.90;94.50
1988;DHT22;12775;46.994;15.498;2023-06-26T00:54:52;19.80;93.50
1988;DHT22;12775;46.994;15.498;2023-06-26T00:57:18;19.80;93.20
1988;DHT22;12775;46.994;15.498;2023-06-26T00:59:45;19.80;93.10
1988;DHT22;12775;46.994;15.498;2023-06-26T01:02:11;19.70;92.90
1988;DHT22;12775;46.994;15.498;2023-06-26T01:04:38;19.70;93.30
1988;DHT22;12775;46.994;15.498;2023-06-26T01:07:05;19.70;92.90
1988;DHT22;12775;46.994;15.498;2023-06-26T01:09:33;19.60;92.90
1988;DHT22;12775;46.994;15.498;2023-06-26T01:11:59;19.70;92.80
1988;DHT22;12775;46.994;15.498;2023-06-26T01:14:25;19.60;92.70
1988;DHT22;12775;46.994;15.498;2023-06-26T01:16:52;19.60;92.60
1988;DHT22;12775;46.994;15.498;2023-06-26T01:19:21;19.60;92.60
1988;DHT22;12775;46.994;15.498;2023-06-26T01:21:46;19.50;92.80
1988;DHT22;12775;46.994;15.498;2023-06-26T01:24:16;19.50;92.80
1988;DHT22;12775;46.994;15.498;2023-06-26T01:26:52;19.50;92.90
1988;DHT22;12775;46.994;15.498;2023-06-26T01:29:19;19.50;92.80
1988;DHT22;12775;46.994;15.498;2023-06-26T01:31:46;19.40;92.90
1988;DHT22;12775;46.994;15.498;2023-06-26T01:34:14;19.40;93.20
1988;DHT22;12775;46.994;15.498;2023-06-26T01:36:39;19.30;93.10
1988;DHT22;12775;46.994;15.498;2023-06-26T01:39:06;19.30;93.10
1988;DHT22;12775;46.994;15.498;2023-06-26T01:41:33;19.30;93.60
1988;DHT22;12775;46.994;15.498;2023-06-26T01:44:24;19.30;93.10
1988;DHT22;12775;46.994;15.498;2023-06-26T01:47:00;19.30;93.10
1988;DHT22;12775;46.994;15.498;2023-06-26T01:49:31;19.20;92.90
1988;DHT22;12775;46.994;15.498;2023-06-26T01:54:42;19.10;93.20
1988;DHT22;12775;46.994;15.498;2023-06-26T01:57:08;19.10;93.20
1988;DHT22;12775;46.994;15.498;2023-06-26T01:59:34;19.10;93.20
1988;DHT22;12775;46.994;15.498;2023-06-26T02:02:01;19.10;93.50
1988;DHT22;12775;46.994;15.498;2023-06-26T02:04:28;19.10;94.20
1988;DHT22;12775;46.994;15.498;2023-06-26T02:06:54;19.00;94.10
1988;DHT22;12775;46.994;15.498;2023-06-26T02:09:22;19.00;93.10
1988;DHT22;12775;46.994;15.498;2023-06-26T02:11:48;19.00;93.10
1988;DHT22;12775;46.994;15.498;2023-06-26T02:14:15;19.00;93.20
1988;DHT22;12775;46.994;15.498;2023-06-26T02:16:41;19.00;93.20
1988;DHT22;12775;46.994;15.498;2023-06-26T02:19:08;19.00;93.50
1988;DHT22;12775;46.994;15.498;2023-06-26T02:21:35;18.90;92.90
1988;DHT22;12775;46.994;15.498;2023-06-26T02:24:04;18.90;93.10
1988;DHT22;12775;46.994;15.498;2023-06-26T02:26:32;18.90;93.40
1988;DHT22;12775;46.994;15.498;2023-06-26T02:28:58;18.90;93.40
1988;DHT22;12775;46.994;15.498;2023-06-26T02:31:25;18.80;93.30
1988;DHT22;12775;46.994;15.498;2023-06-26T02:33:51;18.80;93.40
1988;DHT22;12775;46.994;15.498;2023-06-26T02:36:18;18.80;94.00
1988;DHT22;12775;46.994;15.498;2023-06-26T02:38:45;18.80;93.80
1988;DHT22;12775;46.994;15.498;2023-06-26T02:41:11;18.70;93.50
1988;DHT22;12775;46.994;15.498;2023-06-26T02:43:39;18.70;93.50
1988;DHT22;12775;46.994;15.498;2023-06-26T02:46:05;18.60;93.50
1988;DHT22;12775;46.994;15.498;2023-06-26T02:48:32;18.70;93.40
1988;DHT22;12775;46.994;15.498;2023-06-26T02:50:58;18.60;93.40
1988;DHT22;12775;46.994;15.498;2023-06-26T02:53:25;18.70;93.50
1988;DHT22;12775;46.994;15.498;2023-06-26T02:55:52;18.60;93.40
1988;DHT22;12775;46.994;15.498;2023-06-26T02:58:18;18.60;94.60
1988;DHT22;12775;46.994;15.498;2023-06-26T03:00:46;18.60;94.80
1988;DHT22;12775;46.994;15.498;2023-06-26T03:03:13;18.60;94.80
1988;DHT22;12775;46.994;15.498;2023-06-26T03:05:40;18.60;94.70
1988;DHT22;12775;46.994;15.498;2023-06-26T03:08:06;18.60;95.10
1988;DHT22;12775;46.994;15.498;2023-06-26T03:10:33;18.50;94.10
1988;DHT22;12775;46.994;15.498;2023-06-26T03:13:00;18.50;94.10
1988;DHT22;12775;46.994;15.498;2023-06-26T03:15:27;18.50;93.80
1988;DHT22;12775;46.994;15.498;2023-06-26T03:17:54;18.40;93.80
1988;DHT22;12775;46.994;15.498;2023-06-26T03:20:21;18.40;93.60
1988;DHT22;12775;46.994;15.498;2023-06-26T03:22:47;18.40;93.80
1988;DHT22;12775;46.994;15.498;2023-06-26T03:25:14;18.30;93.80
1988;DHT22;12775;46.994;15.498;2023-06-26T03:27:40;18.30;94.30
1988;DHT22;12775;46.994;15.498;2023-06-26T03:30:07;18.30;94.20
1988;DHT22;12775;46.994;15.498;2023-06-26T03:32:34;18.20;94.60
1988;DHT22;12775;46.994;15.498;2023-06-26T03:35:01;18.20;94.30
1988;DHT22;12775;46.994;15.498;2023-06-26T03:37:27;18.20;94.70
1988;DHT22;12775;46.994;15.498;2023-06-26T03:39:54;18.20;94.80
1988;DHT22;12775;46.994;15.498;2023-06-26T03:42:21;18.10;94.70
1988;DHT22;12775;46.994;15.498;2023-06-26T03:44:48;18.00;94.70
1988;DHT22;12775;46.994;15.498;2023-06-26T03:47:14;18.00;94.90
1988;DHT22;12775;46.994;15.498;2023-06-26T03:49:41;18.10;95.30
1988;DHT22;12775;46.994;15.498;2023-06-26T03:52:08;18.00;95.40
1988;DHT22;12775;46.994;15.498;2023-06-26T03:54:34;18.00;95.80
1988;DHT22;12775;46.994;15.498;2023-06-26T03:57:02;18.00;96.30
1988;DHT22;12775;46.994;15.498;2023-06-26T03:59:28;18.10;97.40
1988;DHT22;12775;46.994;15.498;2023-06-26T04:01:55;18.40;98.80
1988;DHT22;12775;46.994;15.498;2023-06-26T04:04:22;18.80;99.10
1988;DHT22;12775;46.994;15.498;2023-06-26T04:06:48;19.40;98.60
1988;DHT22;12775;46.994;15.498;2023-06-26T04:09:15;20.10;97.70
1988;DHT22;12775;46.994;15.498;2023-06-26T04:11:42;20.70;96.60
1988;DHT22;12775;46.994;15.498;2023-06-26T04:14:08;21.30;95.60
1988;DHT22;12775;46.994;15.498;2023-06-26T04:16:35;21.80;94.50
1988;DHT22;12775;46.994;15.498;2023-06-26T04:19:01;22.20;93.70
1988;DHT22;12775;46.994;15.498;2023-06-26T04:21:28;22.50;94.10
1988;DHT22;12775;46.994;15.498;2023-06-26T04:23:55;22.60;94.00
1988;DHT22;12775;46.994;15.498;2023-06-26T04:26:21;22.50;95.00
1988;DHT22;12775;46.994;15.498;2023-06-26T04:28:48;22.30;96.40
1988;DHT22;12775;46.994;15.498;2023-06-26T04:31:15;22.20;96.00
1988;DHT22;12775;46.994;15.498;2023-06-26T04:33:42;22.10;95.90
1988;DHT22;12775;46.994;15.498;2023-06-26T04:36:08;22.30;96.20
1988;DHT22;12775;46.994;15.498;2023-06-26T04:38:35;22.50;96.10
1988;DHT22;12775;46.994;15.498;2023-06-26T04:41:02;22.80;95.60
1988;DHT22;12775;46.994;15.498;2023-06-26T04:43:29;23.90;94.50
1988;DHT22;12775;46.994;15.498;2023-06-26T04:45:56;23.80;94.70
1988;DHT22;12775;46.994;15.498;2023-06-26T04:48:22;24.60;92.10
1988;DHT22;12775;46.994;15.498;2023-06-26T04:50:49;25.10;91.30
1988;DHT22;12775;46.994;15.498;2023-06-26T04:53:15;25.60;88.90
1988;DHT22;12775;46.994;15.498;2023-06-26T04:55:42;25.90;87.50
1988;DHT22;12775;46.994;15.498;2023-06-26T04:58:08;26.20;86.00
1988;DHT22;12775;46.994;15.498;2023-06-26T05:00:35;26.40;86.00
1988;DHT22;12775;46.994;15.498;2023-06-26T05:03:02;26.50;86.20
1988;DHT22;12775;46.994;15.498;2023-06-26T05:05:28;26.80;85.50
1988;DHT22;12775;46.994;15.498;2023-06-26T05:07:55;27.20;84.00
1988;DHT22;12775;46.994;15.498;2023-06-26T05:10:22;27.40;82.90
1988;DHT22;12775;46.994;15.498;2023-06-26T05:12:48;27.70;83.20
1988;DHT22;12775;46.994;15.498;2023-06-26T05:15:16;27.80;82.50
1988;DHT22;12775;46.994;15.498;2023-06-26T05:17:43;28.00;83.50
1988;DHT22;12775;46.994;15.498;2023-06-26T05:20:10;27.90;83.70
1988;DHT22;12775;46.994;15.498;2023-06-26T05:22:37;28.10;82.60
1988;DHT22;12775;46.994;15.498;2023-06-26T05:25:03;28.20;78.50
1988;DHT22;12775;46.994;15.498;2023-06-26T05:27:30;28.00;82.00
1988;DHT22;12775;46.994;15.498;2023-06-26T05:29:57;28.20;83.30
1988;DHT22;12775;46.994;15.498;2023-06-26T05:32:24;28.20;83.00
1988;DHT22;12775;46.994;15.498;2023-06-26T05:34:51;28.40;80.70
1988;DHT22;12775;46.994;15.498;2023-06-26T05:37:20;28.40;80.70
1988;DHT22;12775;46.994;15.498;2023-06-26T05:39:45;28.50;81.00
1988;DHT22;12775;46.994;15.498;2023-06-26T05:42:12;28.50;80.40
1988;DHT22;12775;46.994;15.498;2023-06-26T05:44:39;28.70;83.20
1988;DHT22;12775;46.994;15.498;2023-06-26T05:47:05;28.80;79.90
1988;DHT22;12775;46.994;15.498;2023-06-26T05:49:32;28.90;82.10
1988;DHT22;12775;46.994;15.498;2023-06-26T05:51:59;29.00;78.70
1988;DHT22;12775;46.994;15.498;2023-06-26T05:54:25;29.10;80.30
1988;DHT22;12775;46.994;15.498;2023-06-26T05:56:53;29.10;80.40
1988;DHT22;12775;46.994;15.498;2023-06-26T05:59:19;29.30;75.90
1988;DHT22;12775;46.994;15.498;2023-06-26T06:01:45;29.50;79.40
1988;DHT22;12775;46.994;15.498;2023-06-26T06:04:12;29.60;78.60
1988;DHT22;12775;46.994;15.498;2023-06-26T06:06:38;29.70;78.50
1988;DHT22;12775;46.994;15.498;2023-06-26T06:09:05;29.80;75.90
1988;DHT22;12775;46.994;15.498;2023-06-26T06:11:32;29.90;74.90
1988;DHT22;12775;46.994;15.498;2023-06-26T06:13:58;30.10;77.70
1988;DHT22;12775;46.994;15.498;2023-06-26T06:16:25;30.20;75.80
1988;DHT22;12775;46.994;15.498;2023-06-26T06:18:51;30.40;77.80
1988;DHT22;12775;46.994;15.498;2023-06-26T06:21:18;30.40;75.00
1988;DHT22;12775;46.994;15.498;2023-06-26T06:23:45;30.60;80.40
1988;DHT22;12775;46.994;15.498;2023-06-26T06:26:11;30.60;80.00
1988;DHT22;12775;46.994;15.498;2023-06-26T06:28:39;30.80;79.70
1988;DHT22;12775;46.994;15.498;2023-06-26T06:31:05;30.90;78.50
1988;DHT22;12775;46.994;15.498;2023-06-26T06:33:31;31.00;80.40
1988;DHT22;12775;46.994;15.498;2023-06-26T06:35:58;31.10;75.90
1988;DHT22;12775;46.994;15.498;2023-06-26T06:38:25;31.10;75.90
1988;DHT22;12775;46.994;15.498;2023-06-26T06:40:52;31.30;76.80
1988;DHT22;12775;46.994;15.498;2023-06-26T06:43:18;31.30;76.80
1988;DHT22;12775;46.994;15.498;2023-06-26T06:45:46;31.50;70.90
1988;DHT22;12775;46.994;15.498;2023-06-26T06:48:12;31.60;70.70
1988;DHT22;12775;46.994;15.498;2023-06-26T06:50:39;31.70;69.70
1988;DHT22;12775;46.994;15.498;2023-06-26T06:53:06;31.80;74.60
1988;DHT22;12775;46.994;15.498;2023-06-26T06:55:32;31.90;67.90
1988;DHT22;12775;46.994;15.498;2023-06-26T06:57:59;32.00;71.70
1988;DHT22;12775;46.994;15.498;2023-06-26T07:00:25;32.10;74.80
1988;DHT22;12775;46.994;15.498;2023-06-26T07:02:52;32.00;69.80
1988;DHT22;12775;46.994;15.498;2023-06-26T07:05:19;32.10;68.50
1988;DHT22;12775;46.994;15.498;2023-06-26T07:07:45;32.00;71.00
1988;DHT22;12775;46.994;15.498;2023-06-26T07:10:12;32.00;68.10
1988;DHT22;12775;46.994;15.498;2023-06-26T07:12:38;31.80;73.00
1988;DHT22;12775;46.994;15.498;2023-06-26T07:15:06;31.80;70.10
1988;DHT22;12775;46.994;15.498;2023-06-26T07:17:33;31.90;71.50
1988;DHT22;12775;46.994;15.498;2023-06-26T07:19:59;31.90;67.00
1988;DHT22;12775;46.994;15.498;2023-06-26T07:22:26;32.00;69.80
1988;DHT22;12775;46.994;15.498;2023-06-26T07:24:52;32.10;69.20
1988;DHT22;12775;46.994;15.498;2023-06-26T07:27:19;32.00;64.30
1988;DHT22;12775;46.994;15.498;2023-06-26T07:29:45;31.90;65.10
1988;DHT22;12775;46.994;15.498;2023-06-26T07:32:12;31.90;69.10
1988;DHT22;12775;46.994;15.498;2023-06-26T07:34:39;31.90;69.90
1988;DHT22;12775;46.994;15.498;2023-06-26T07:37:05;32.20;70.40
1988;DHT22;12775;46.994;15.498;2023-06-26T07:39:32;32.20;70.20
1988;DHT22;12775;46.994;15.498;2023-06-26T07:41:58;32.30;67.10
1988;DHT22;12775;46.994;15.498;2023-06-26T07:44:25;32.50;71.90
1988;DHT22;12775;46.994;15.498;2023-06-26T07:46:52;32.50;68.80
1988;DHT22;12775;46.994;15.498;2023-06-26T07:49:18;32.70;68.70
1988;DHT22;12775;46.994;15.498;2023-06-26T07:51:45;32.80;66.80
1988;DHT22;12775;46.994;15.498;2023-06-26T07:54:12;33.00;74.30
1988;DHT22;12775;46.994;15.498;2023-06-26T07:56:53;33.20;73.80
1988;DHT22;12775;46.994;15.498;2023-06-26T07:59:20;33.50;77.80
1988;DHT22;12775;46.994;15.498;2023-06-26T08:01:46;33.40;77.60
1988;DHT22;12775;46.994;15.498;2023-06-26T08:04:13;33.50;64.30
1988;DHT22;12775;46.994;15.498;2023-06-26T08:06:40;33.60;63.80
1988;DHT22;12775;46.994;15.498;2023-06-26T08:09:06;33.80;67.10
1988;DHT22;12775;46.994;15.498;2023-06-26T08:11:33;34.00;64.60
1988;DHT22;12775;46.994;15.498;2023-06-26T08:14:00;34.00;68.40
1988;DHT22;12775;46.994;15.498;2023-06-26T08:16:27;34.00;67.40
1988;DHT22;12775;46.994;15.498;2023-06-26T08:18:53;34.10;59.80
1988;DHT22;12775;46.994;15.498;2023-06-26T08:21:20;34.20;58.00
1988;DHT22;12775;46.994;15.498;2023-06-26T08:23:46;34.30;62.90
1988;DHT22;12775;46.994;15.498;2023-06-26T08:26:13;34.30;72.10
1988;DHT22;12775;46.994;15.498;2023-06-26T08:28:40;34.40;63.00
1988;DHT22;12775;46.994;15.498;2023-06-26T08:31:06;34.30;62.80
1988;DHT22;12775;46.994;15.498;2023-06-26T08:33:33;34.30;63.30
1988;DHT22;12775;46.994;15.498;2023-06-26T08:35:59;34.40;60.00
1988;DHT22;12775;46.994;15.498;2023-06-26T08:38:26;34.30;58.80
1988;DHT22;12775;46.994;15.498;2023-06-26T08:40:53;34.40;64.60
1988;DHT22;12775;46.994;15.498;2023-06-26T08:43:19;34.10;63.20
1988;DHT22;12775;46.994;15.498;2023-06-26T08:45:46;34.30;59.60
1988;DHT22;12775;46.994;15.498;2023-06-26T08:48:13;34.40;60.90
1988;DHT22;12775;46.994;15.498;2023-06-26T08:50:40;34.50;62.80
1988;DHT22;12775;46.994;15.498;2023-06-26T08:53:20;34.40;59.20
1988;DHT22;12775;46.994;15.498;2023-06-26T08:55:43;34.60;63.90
1988;DHT22;12775;46.994;15.498;2023-06-26T08:58:10;34.90;62.80
1988;DHT22;12775;46.994;15.498;2023-06-26T09:00:37;34.90;62.90
1988;DHT22;12775;46.994;15.498;2023-06-26T09:03:03;35.30;66.00
1988;DHT22;12775;46.994;15.498;2023-06-26T09:05:30;35.50;62.70
1988;DHT22;12775;46.994;15.498;2023-06-26T09:07:57;35.70;58.60
1988;DHT22;12775;46.994;15.498;2023-06-26T09:10:25;35.80;58.80
1988;DHT22;12775;46.994;15.498;2023-06-26T09:12:54;35.60;56.20
1988;DHT22;12775;46.994;15.498;2023-06-26T09:15:19;35.60;57.20
1988;DHT22;12775;46.994;15.498;2023-06-26T09:17:47;35.50;63.60
1988;DHT22;12775;46.994;15.498;2023-06-26T09:20:13;35.50;63.50
1988;DHT22;12775;46.994;15.498;2023-06-26T09:22:40;35.80;62.30
1988;DHT22;12775;46.994;15.498;2023-06-26T09:25:06;36.30;64.80
1988;DHT22;12775;46.994;15.498;2023-06-26T09:27:34;36.50;57.70
1988;DHT22;12775;46.994;15.498;2023-06-26T09:30:01;36.80;58.20
1988;DHT22;12775;46.994;15.498;2023-06-26T09:32:27;36.90;56.90
1988;DHT22;12775;46.994;15.498;2023-06-26T09:34:54;36.60;54.50
1988;DHT22;12775;46.994;15.498;2023-06-26T09:37:23;36.40;55.90
1988;DHT22;12775;46.994;15.498;2023-06-26T09:39:50;35.90;55.30
1988;DHT22;12775;46.994;15.498;2023-06-26T09:42:17;35.80;56.90
1988;DHT22;12775;46.994;15.498;2023-06-26T09:44:44;35.80;56.10
1988;DHT22;12775;46.994;15.498;2023-06-26T09:47:10;35.70;56.00
1988;DHT22;12775;46.994;15.498;2023-06-26T09:49:40;35.40;55.40
1988;DHT22;12775;46.994;15.498;2023-06-26T09:52:04;35.00;57.20
1988;DHT22;12775;46.994;15.498;2023-06-26T09:54:30;34.80;58.00
1988;DHT22;12775;46.994;15.498;2023-06-26T09:59:30;35.00;60.40
1988;DHT22;12775;46.994;15.498;2023-06-26T10:01:58;35.20;59.80
1988;DHT22;12775;46.994;15.498;2023-06-26T10:04:23;35.30;59.60
1988;DHT22;12775;46.994;15.498;2023-06-26T10:06:50;35.30;57.90
1988;DHT22;12775;46.994;15.498;2023-06-26T10:09:17;35.30;59.10
1988;DHT22;12775;46.994;15.498;2023-06-26T10:12:02;35.20;58.60
1988;DHT22;12775;46.994;15.498;2023-06-26T10:14:31;35.30;58.40
1988;DHT22;12775;46.994;15.498;2023-06-26T10:16:57;35.50;59.80
1988;DHT22;12775;46.994;15.498;2023-06-26T10:19:22;35.60;58.50
1988;DHT22;12775;46.994;15.498;2023-06-26T10:21:51;35.80;58.90
1988;DHT22;12775;46.994;15.498;2023-06-26T10:24:16;35.70;58.80
1988;DHT22;12775;46.994;15.498;2023-06-26T10:26:44;35.50;55.40
1988;DHT22;12775;46.994;15.498;2023-06-26T10:29:10;35.40;58.80
1988;DHT22;12775;46.994;15.498;2023-06-26T10:31:37;35.50;57.80
1988;DHT22;12775;46.994;15.498;2023-06-26T10:34:03;35.30;58.40
1988;DHT22;12775;46.994;15.498;2023-06-26T10:36:30;34.50;57.60
1988;DHT22;12775;46.994;15.498;2023-06-26T10:38:58;34.50;56.30
1988;DHT22;12775;46.994;15.498;2023-06-26T10:41:24;34.20;56.80
1988;DHT22;12775;46.994;15.498;2023-06-26T10:46:23;34.20;63.20
1988;DHT22;12775;46.994;15.498;2023-06-26T10:48:57;34.10;63.10
1988;DHT22;12775;46.994;15.498;2023-06-26T10:51:22;34.40;57.50
1988;DHT22;12775;46.994;15.498;2023-06-26T10:53:53;34.40;57.10
1988;DHT22;12775;46.994;15.498;2023-06-26T10:56:16;34.40;57.30
1988;DHT22;12775;46.994;15.498;2023-06-26T10:58:44;34.00;56.50
1988;DHT22;12775;46.994;15.498;2023-06-26T11:01:14;34.00;56.50
1988;DHT22;12775;46.994;15.498;2023-06-26T11:03:41;34.30;58.20
1988;DHT22;12775;46.994;15.498;2023-06-26T11:06:10;34.70;58.20
1988;DHT22;12775;46.994;15.498;2023-06-26T11:08:44;34.40;57.30
1988;DHT22;12775;46.994;15.498;2023-06-26T11:11:11;34.50;57.50
1988;DHT22;12775;46.994;15.498;2023-06-26T11:13:39;34.60;59.00
1988;DHT22;12775;46.994;15.498;2023-06-26T11:16:05;34.40;57.40
1988;DHT22;12775;46.994;15.498;2023-06-26T11:18:33;34.40;57.90
1988;DHT22;12775;46.994;15.498;2023-06-26T11:21:08;34.60;59.80
1988;DHT22;12775;46.994;15.498;2023-06-26T11:23:35;34.50;59.70
1988;DHT22;12775;46.994;15.498;2023-06-26T11:26:13;34.90;62.80
1988;DHT22;12775;46.994;15.498;2023-06-26T11:28:39;35.10;55.10
1988;DHT22;12775;46.994;15.498;2023-06-26T11:31:06;35.20;55.40
1988;DHT22;12775;46.994;15.498;2023-06-26T11:33:33;35.20;55.40
1988;DHT22;12775;46.994;15.498;2023-06-26T11:36:08;34.90;56.00
1988;DHT22;12775;46.994;15.498;2023-06-26T11:38:37;34.90;56.10
1988;DHT22;12775;46.994;15.498;2023-06-26T11:41:04;34.90;54.40
1988;DHT22;12775;46.994;15.498;2023-06-26T11:43:30;34.70;55.50
1988;DHT22;12775;46.994;15.498;2023-06-26T11:45:58;34.70;55.90
1988;DHT22;12775;46.994;15.498;2023-06-26T11:48:25;34.80;55.60
1988;DHT22;12775;46.994;15.498;2023-06-26T11:50:51;34.60;57.20
1988;DHT22;12775;46.994;15.498;2023-06-26T11:53:18;34.50;57.60
1988;DHT22;12775;46.994;15.498;2023-06-26T11:55:45;34.80;60.60
1988;DHT22;12775;46.994;15.498;2023-06-26T11:58:12;35.10;57.20
1988;DHT22;12775;46.994;15.498;2023-06-26T12:00:41;35.30;58.00
1988;DHT22;12775;46.994;15.498;2023-06-26T12:03:08;35.60;59.80
1988;DHT22;12775;46.994;15.498;2023-06-26T12:05:34;35.80;55.70
1988;DHT22;12775;46.994;15.498;2023-06-26T12:08:01;35.80;54.40
1988;DHT22;12775;46.994;15.498;2023-06-26T12:10:27;35.90;55.40
1988;DHT22;12775;46.994;15.498;2023-06-26T12:12:54;36.00;55.70
1988;DHT22;12775;46.994;15.498;2023-06-26T12:15:21;36.00;52.60
1988;DHT22;12775;46.994;15.498;2023-06-26T12:17:47;36.00;54.70
1988;DHT22;12775;46.994;15.498;2023-06-26T12:20:20;35.60;53.50
1988;DHT22;12775;46.994;15.498;2023-06-26T12:22:46;35.50;54.20
1988;DHT22;12775;46.994;15.498;2023-06-26T12:25:12;35.30;54.70
1988;DHT22;12775;46.994;15.498;2023-06-26T12:27:38;35.10;54.60
1988;DHT22;12775;46.994;15.498;2023-06-26T12:30:06;35.20;58.60
1988;DHT22;12775;46.994;15.498;2023-06-26T12:32:34;35.60;51.90
1988;DHT22;12775;46.994;15.498;2023-06-26T12:35:00;35.60;51.90
1988;DHT22;12775;46.994;15.498;2023-06-26T12:37:26;35.60;52.40
1988;DHT22;12775;46.994;15.498;2023-06-26T12:39:54;35.60;52.80
1988;DHT22;12775;46.994;15.498;2023-06-26T12:42:23;35.80;56.30
1988;DHT22;12775;46.994;15.498;2023-06-26T12:44:50;35.80;54.20
1988;DHT22;12775;46.994;15.498;2023-06-26T12:47:17;35.40;53.60
1988;DHT22;12775;46.994;15.498;2023-06-26T12:49:44;35.20;55.10
1988;DHT22;12775;46.994;15.498;2023-06-26T12:52:12;35.30;55.30
1988;DHT22;12775;46.994;15.498;2023-06-26T12:54:40;35.10;53.90
1988;DHT22;12775;46.994;15.498;2023-06-26T12:57:06;34.80;53.60
1988;DHT22;12775;46.994;15.498;2023-06-26T12:59:32;34.90;55.70
1988;DHT22;12775;46.994;15.498;2023-06-26T13:01:59;35.10;55.20
1988;DHT22;12775;46.994;15.498;2023-06-26T13:04:25;35.40;52.00
1988;DHT22;12775;46.994;15.498;2023-06-26T13:06:52;35.40;53.20
1988;DHT22;12775;46.994;15.498;2023-06-26T13:09:18;35.70;55.80
1988;DHT22;12775;46.994;15.498;2023-06-26T13:11:46;36.00;53.60
1988;DHT22;12775;46.994;15.498;2023-06-26T13:14:13;36.00;53.90
1988;DHT22;12775;46.994;15.498;2023-06-26T13:16:40;36.10;52.00
1988;DHT22;12775;46.994;15.498;2023-06-26T13:19:07;35.90;54.20
1988;DHT22;12775;46.994;15.498;2023-06-26T13:21:34;35.90;52.30
1988;DHT22;12775;46.994;15.498;2023-06-26T13:24:00;36.00;55.80
1988;DHT22;12775;46.994;15.498;2023-06-26T13:26:27;36.20;52.40
1988;DHT22;12775;46.994;15.498;2023-06-26T13:28:53;36.20;53.50
1988;DHT22;12775;46.994;15.498;2023-06-26T13:31:20;35.80;52.20
1988;DHT22;12775;46.994;15.498;2023-06-26T13:33:46;35.70;55.40
1988;DHT22;12775;46.994;15.498;2023-06-26T13:36:13;35.50;52.60
1988;DHT22;12775;46.994;15.498;2023-06-26T13:38:39;35.40;54.10
1988;DHT22;12775;46.994;15.498;2023-06-26T13:41:07;35.10;55.20
1988;DHT22;12775;46.994;15.498;2023-06-26T13:43:33;35.10;55.10
1988;DHT22;12775;46.994;15.498;2023-06-26T13:46:01;34.70;54.90
1988;DHT22;12775;46.994;15.498;2023-06-26T13:48:27;34.60;54.80
1988;DHT22;12775;46.994;15.498;2023-06-26T13:50:54;34.80;54.10
1988;DHT22;12775;46.994;15.498;2023-06-26T13:53:21;34.50;55.90
1988;DHT22;12775;46.994;15.498;2023-06-26T13:55:48;34.40;55.90
1988;DHT22;12775;46.994;15.498;2023-06-26T13:58:15;34.60;55.90
1988;DHT22;12775;46.994;15.498;2023-06-26T14:00:41;34.70;54.80
1988;DHT22;12775;46.994;15.498;2023-06-26T14:03:08;34.70;55.80
1988;DHT22;12775;46.994;15.498;2023-06-26T14:05:35;35.00;56.70
1988;DHT22;12775;46.994;15.498;2023-06-26T14:08:03;34.80;54.80
1988;DHT22;12775;46.994;15.498;2023-06-26T14:10:29;34.60;54.40
1988;DHT22;12775;46.994;15.498;2023-06-26T14:12:56;34.20;54.80
1988;DHT22;12775;46.994;15.498;2023-06-26T14:15:23;34.20;54.80
1988;DHT22;12775;46.994;15.498;2023-06-26T14:17:49;34.20;55.50
1988;DHT22;12775;46.994;15.498;2023-06-26T14:20:16;34.00;56.50
1988;DHT22;12775;46.994;15.498;2023-06-26T14:22:43;34.00;58.30
1988;DHT22;12775;46.994;15.498;2023-06-26T14:25:10;34.00;58.30
1988;DHT22;12775;46.994;15.498;2023-06-26T14:27:36;34.10;55.40
1988;DHT22;12775;46.994;15.498;2023-06-26T14:30:03;34.10;57.80
1988;DHT22;12775;46.994;15.498;2023-06-26T14:32:31;34.20;55.50
1988;DHT22;12775;46.994;15.498;2023-06-26T14:34:58;34.20;55.50
1988;DHT22;12775;46.994;15.498;2023-06-26T14:37:25;34.20;56.20
1988;DHT22;12775;46.994;15.498;2023-06-26T14:39:52;34.30;57.30
1988;DHT22;12775;46.994;15.498;2023-06-26T14:42:18;34.10;58.30
1988;DHT22;12775;46.994;15.498;2023-06-26T14:44:45;34.00;55.80
1988;DHT22;12775;46.994;15.498;2023-06-26T14:47:12;34.00;60.20
1988;DHT22;12775;46.994;15.498;2023-06-26T14:49:38;34.00;56.80
1988;DHT22;12775;46.994;15.498;2023-06-26T14:52:05;34.00;55.90
1988;DHT22;12775;46.994;15.498;2023-06-26T14:54:32;33.70;57.10
1988;DHT22;12775;46.994;15.498;2023-06-26T14:56:58;33.70;56.70
1988;DHT22;12775;46.994;15.498;2023-06-26T14:59:25;33.70;56.80
1988;DHT22;12775;46.994;15.498;2023-06-26T15:01:51;33.80;57.30
1988;DHT22;12775;46.994;15.498;2023-06-26T15:04:18;33.80;57.20
1988;DHT22;12775;46.994;15.498;2023-06-26T15:06:45;33.80;57.60
1988;DHT22;12775;46.994;15.498;2023-06-26T15:09:11;33.60;57.60
1988;DHT22;12775;46.994;15.498;2023-06-26T15:11:38;33.50;58.30
1988;DHT22;12775;46.994;15.498;2023-06-26T15:14:05;33.60;59.30
1988;DHT22;12775;46.994;15.498;2023-06-26T15:16:32;33.70;59.30
1988;DHT22;12775;46.994;15.498;2023-06-26T15:18:58;33.50;58.80
1988;DHT22;12775;46.994;15.498;2023-06-26T15:21:25;33.60;60.10
1988;DHT22;12775;46.994;15.498;2023-06-26T15:23:52;33.40;59.30
1988;DHT22;12775;46.994;15.498;2023-06-26T15:26:18;33.20;58.70
1988;DHT22;12775;46.994;15.498;2023-06-26T15:28:46;33.10;59.00
1988;DHT22;12775;46.994;15.498;2023-06-26T15:31:12;33.10;59.00
1988;DHT22;12775;46.994;15.498;2023-06-26T15:33:39;32.70;58.00
1988;DHT22;12775;46.994;15.498;2023-06-26T15:36:05;32.80;58.30